<?xml version="1.0" encoding="UTF-8" standalone="no" ?>
<gpx xmlns="http://www.topografix.com/GPX/1/1" xmlns:xsi="http://www.w3.org/2001/XMLSchema-instance" xsi:schemaLocation="http://www.topografix.com/GPX/1/1 http://www.topografix.com/GPX/1/1/gpx.xsd" version="1.1" creator="VisuGPX - https://www.visugpx.com">
  <metadata>
    <name>Ligne 10 Rive - Aéroport</name>
  </metadata>
  <trk>
    <name><![CDATA[ligne 10 Rive - Aéroport_retour 10]]></name>
    <trkseg>
      <trkpt lat="46.20157" lon="6.15328">
        <ele>387.3</ele>
        <time>2020-05-04T12:51:32.000Z</time>
      </trkpt>
      <trkpt lat="46.20148" lon="6.1537">
        <ele>389.9</ele>
        <time>2020-05-04T12:51:44.520Z</time>
      </trkpt>
      <trkpt lat="46.20147" lon="6.15375">
        <ele>390.1</ele>
        <time>2020-05-04T12:51:45.749Z</time>
      </trkpt>
      <trkpt lat="46.20147" lon="6.15381">
        <ele>390.2</ele>
        <time>2020-05-04T12:51:46.654Z</time>
      </trkpt>
      <trkpt lat="46.20146" lon="6.15395">
        <ele>390.4</ele>
        <time>2020-05-04T12:51:48.812Z</time>
      </trkpt>
      <trkpt lat="46.20139" lon="6.15432">
        <ele>391</ele>
        <time>2020-05-04T12:51:54.918Z</time>
      </trkpt>
      <trkpt lat="46.20134" lon="6.15463">
        <ele>391.1</ele>
        <time>2020-05-04T12:51:59.102Z</time>
      </trkpt>
      <trkpt lat="46.20132" lon="6.15483">
        <ele>391.1</ele>
        <time>2020-05-04T12:52:01.620Z</time>
      </trkpt>
      <trkpt lat="46.20123" lon="6.15525">
        <ele>390.8</ele>
        <time>2020-05-04T12:52:05.954Z</time>
      </trkpt>
      <trkpt lat="46.20119" lon="6.15549">
        <ele>390.8</ele>
        <time>2020-05-04T12:52:09.002Z</time>
      </trkpt>
      <trkpt lat="46.20119" lon="6.15552">
        <ele>390.8</ele>
        <time>2020-05-04T12:52:09.378Z</time>
      </trkpt>
      <trkpt lat="46.2012" lon="6.15555">
        <ele>390.8</ele>
        <time>2020-05-04T12:52:09.738Z</time>
      </trkpt>
      <trkpt lat="46.20121" lon="6.15558">
        <ele>390.8</ele>
        <time>2020-05-04T12:52:10.170Z</time>
      </trkpt>
      <trkpt lat="46.20124" lon="6.15561">
        <ele>390.7</ele>
        <time>2020-05-04T12:52:10.619Z</time>
      </trkpt>
      <trkpt lat="46.20128" lon="6.15563">
        <ele>390.6</ele>
        <time>2020-05-04T12:52:11.036Z</time>
      </trkpt>
      <trkpt lat="46.20131" lon="6.15565">
        <ele>390.5</ele>
        <time>2020-05-04T12:52:11.514Z</time>
      </trkpt>
      <trkpt lat="46.20136" lon="6.15567">
        <ele>390.4</ele>
        <time>2020-05-04T12:52:12.154Z</time>
      </trkpt>
      <trkpt lat="46.20143" lon="6.15569">
        <ele>390.2</ele>
        <time>2020-05-04T12:52:12.907Z</time>
      </trkpt>
      <trkpt lat="46.20147" lon="6.15571">
        <ele>390.1</ele>
        <time>2020-05-04T12:52:13.472Z</time>
      </trkpt>
      <trkpt lat="46.20152" lon="6.15574">
        <ele>389.9</ele>
        <time>2020-05-04T12:52:13.940Z</time>
      </trkpt>
      <trkpt lat="46.20183" lon="6.15601">
        <ele>386.9</ele>
        <time>2020-05-04T12:52:17.192Z</time>
      </trkpt>
      <trkpt lat="46.20192" lon="6.15611">
        <ele>386.3</ele>
        <time>2020-05-04T12:52:18.324Z</time>
      </trkpt>
      <trkpt lat="46.20198" lon="6.15618">
        <ele>386.1</ele>
        <time>2020-05-04T12:52:19.198Z</time>
      </trkpt>
      <trkpt lat="46.20203" lon="6.15625">
        <ele>385.9</ele>
        <time>2020-05-04T12:52:19.963Z</time>
      </trkpt>
      <trkpt lat="46.20207" lon="6.15629">
        <ele>385.8</ele>
        <time>2020-05-04T12:52:20.518Z</time>
      </trkpt>
      <trkpt lat="46.20212" lon="6.15633">
        <ele>385.6</ele>
        <time>2020-05-04T12:52:21.252Z</time>
      </trkpt>
      <trkpt lat="46.20216" lon="6.15635">
        <ele>385.5</ele>
        <time>2020-05-04T12:52:21.688Z</time>
      </trkpt>
      <trkpt lat="46.2022" lon="6.15636">
        <ele>385.4</ele>
        <time>2020-05-04T12:52:22.174Z</time>
      </trkpt>
      <trkpt lat="46.20224" lon="6.15635">
        <ele>385.3</ele>
        <time>2020-05-04T12:52:22.592Z</time>
      </trkpt>
      <trkpt lat="46.20227" lon="6.15633">
        <ele>385.3</ele>
        <time>2020-05-04T12:52:23.255Z</time>
      </trkpt>
      <trkpt lat="46.20231" lon="6.15629">
        <ele>385.2</ele>
        <time>2020-05-04T12:52:23.815Z</time>
      </trkpt>
      <trkpt lat="46.20235" lon="6.15624">
        <ele>385.1</ele>
        <time>2020-05-04T12:52:24.492Z</time>
      </trkpt>
      <trkpt lat="46.20237" lon="6.15618">
        <ele>385</ele>
        <time>2020-05-04T12:52:25.134Z</time>
      </trkpt>
      <trkpt lat="46.2024" lon="6.15612">
        <ele>384.9</ele>
        <time>2020-05-04T12:52:25.690Z</time>
      </trkpt>
      <trkpt lat="46.20242" lon="6.15606">
        <ele>384.7</ele>
        <time>2020-05-04T12:52:26.204Z</time>
      </trkpt>
      <trkpt lat="46.20243" lon="6.15598">
        <ele>384.3</ele>
        <time>2020-05-04T12:52:26.691Z</time>
      </trkpt>
      <trkpt lat="46.20255" lon="6.15541">
        <ele>382.8</ele>
        <time>2020-05-04T12:52:31.098Z</time>
      </trkpt>
      <trkpt lat="46.20281" lon="6.15418">
        <ele>380.8</ele>
        <time>2020-05-04T12:52:42.020Z</time>
      </trkpt>
      <trkpt lat="46.20313" lon="6.15261">
        <ele>379.7</ele>
        <time>2020-05-04T12:52:58.244Z</time>
      </trkpt>
      <trkpt lat="46.20338" lon="6.1514">
        <ele>380.4</ele>
        <time>2020-05-04T12:53:15.264Z</time>
      </trkpt>
      <trkpt lat="46.20354" lon="6.15061">
        <ele>381.5</ele>
        <time>2020-05-04T12:53:27.774Z</time>
      </trkpt>
      <trkpt lat="46.20362" lon="6.15029">
        <ele>381.6</ele>
        <time>2020-05-04T12:53:32.241Z</time>
      </trkpt>
      <trkpt lat="46.20366" lon="6.15003">
        <ele>381.9</ele>
        <time>2020-05-04T12:53:36.085Z</time>
      </trkpt>
      <trkpt lat="46.20368" lon="6.14994">
        <ele>383.1</ele>
        <time>2020-05-04T12:53:40.574Z</time>
      </trkpt>
      <trkpt lat="46.20398" lon="6.14851">
        <ele>384.1</ele>
        <time>2020-05-04T12:54:01.105Z</time>
      </trkpt>
      <trkpt lat="46.20423" lon="6.14738">
        <ele>386.3</ele>
        <time>2020-05-04T12:54:20.761Z</time>
      </trkpt>
      <trkpt lat="46.2044" lon="6.14658">
        <ele>384.5</ele>
        <time>2020-05-04T12:54:27.233Z</time>
      </trkpt>
      <trkpt lat="46.20448" lon="6.14625">
        <ele>383.8</ele>
        <time>2020-05-04T12:54:29.961Z</time>
      </trkpt>
      <trkpt lat="46.20452" lon="6.14608">
        <ele>383.7</ele>
        <time>2020-05-04T12:54:31.842Z</time>
      </trkpt>
      <trkpt lat="46.20454" lon="6.14592">
        <ele>383.7</ele>
        <time>2020-05-04T12:54:33.871Z</time>
      </trkpt>
      <trkpt lat="46.20457" lon="6.14574">
        <ele>384.1</ele>
        <time>2020-05-04T12:54:37.105Z</time>
      </trkpt>
      <trkpt lat="46.20459" lon="6.1455">
        <ele>384.2</ele>
        <time>2020-05-04T12:54:40.323Z</time>
      </trkpt>
      <trkpt lat="46.20459" lon="6.14527">
        <ele>384.3</ele>
        <time>2020-05-04T12:54:43.375Z</time>
      </trkpt>
      <trkpt lat="46.2046" lon="6.14503">
        <ele>384.4</ele>
        <time>2020-05-04T12:54:46.550Z</time>
      </trkpt>
      <trkpt lat="46.20459" lon="6.14486">
        <ele>384.6</ele>
        <time>2020-05-04T12:54:49.082Z</time>
      </trkpt>
      <trkpt lat="46.20457" lon="6.1447">
        <ele>384.6</ele>
        <time>2020-05-04T12:54:51.098Z</time>
      </trkpt>
      <trkpt lat="46.20453" lon="6.14449">
        <ele>384.8</ele>
        <time>2020-05-04T12:54:54.118Z</time>
      </trkpt>
      <trkpt lat="46.20436" lon="6.14374">
        <ele>382.5</ele>
        <time>2020-05-04T12:54:59.612Z</time>
      </trkpt>
      <trkpt lat="46.20435" lon="6.14365">
        <ele>382.1</ele>
        <time>2020-05-04T12:55:00.122Z</time>
      </trkpt>
      <trkpt lat="46.20436" lon="6.14359">
        <ele>381.9</ele>
        <time>2020-05-04T12:55:00.547Z</time>
      </trkpt>
      <trkpt lat="46.20439" lon="6.14336">
        <ele>381.3</ele>
        <time>2020-05-04T12:55:02.283Z</time>
      </trkpt>
      <trkpt lat="46.20441" lon="6.14331">
        <ele>379.1</ele>
        <time>2020-05-04T12:55:02.606Z</time>
      </trkpt>
      <trkpt lat="46.20443" lon="6.14328">
        <ele>378.9</ele>
        <time>2020-05-04T12:55:02.897Z</time>
      </trkpt>
      <trkpt lat="46.20446" lon="6.14325">
        <ele>378.7</ele>
        <time>2020-05-04T12:55:03.264Z</time>
      </trkpt>
      <trkpt lat="46.20451" lon="6.14323">
        <ele>378.5</ele>
        <time>2020-05-04T12:55:03.708Z</time>
      </trkpt>
      <trkpt lat="46.20526" lon="6.14286">
        <ele>378.9</ele>
        <time>2020-05-04T12:55:18.702Z</time>
      </trkpt>
      <trkpt lat="46.20528" lon="6.14287">
        <ele>379</ele>
        <time>2020-05-04T12:55:19.393Z</time>
      </trkpt>
      <trkpt lat="46.20532" lon="6.14288">
        <ele>379.2</ele>
        <time>2020-05-04T12:55:20.588Z</time>
      </trkpt>
      <trkpt lat="46.20535" lon="6.1429">
        <ele>379.4</ele>
        <time>2020-05-04T12:55:21.739Z</time>
      </trkpt>
      <trkpt lat="46.20553" lon="6.14307">
        <ele>380.5</ele>
        <time>2020-05-04T12:55:28.665Z</time>
      </trkpt>
      <trkpt lat="46.20555" lon="6.14309">
        <ele>380.6</ele>
        <time>2020-05-04T12:55:29.375Z</time>
      </trkpt>
      <trkpt lat="46.20558" lon="6.14309">
        <ele>380.8</ele>
        <time>2020-05-04T12:55:30.390Z</time>
      </trkpt>
      <trkpt lat="46.20561" lon="6.14307">
        <ele>380.9</ele>
        <time>2020-05-04T12:55:31.273Z</time>
      </trkpt>
      <trkpt lat="46.207" lon="6.14216">
        <ele>391.1</ele>
        <time>2020-05-04T12:56:25.330Z</time>
      </trkpt>
      <trkpt lat="46.20706" lon="6.14213">
        <ele>391.1</ele>
        <time>2020-05-04T12:56:26.519Z</time>
      </trkpt>
      <trkpt lat="46.20711" lon="6.14211">
        <ele>391.1</ele>
        <time>2020-05-04T12:56:27.391Z</time>
      </trkpt>
      <trkpt lat="46.20715" lon="6.14211">
        <ele>391.1</ele>
        <time>2020-05-04T12:56:28.132Z</time>
      </trkpt>
      <trkpt lat="46.20719" lon="6.14213">
        <ele>391.2</ele>
        <time>2020-05-04T12:56:29.116Z</time>
      </trkpt>
      <trkpt lat="46.20766" lon="6.14238">
        <ele>391.5</ele>
        <time>2020-05-04T12:56:38.695Z</time>
      </trkpt>
      <trkpt lat="46.20784" lon="6.14243">
        <ele>390.9</ele>
        <time>2020-05-04T12:56:40.799Z</time>
      </trkpt>
      <trkpt lat="46.20803" lon="6.1425">
        <ele>390.3</ele>
        <time>2020-05-04T12:56:42.896Z</time>
      </trkpt>
      <trkpt lat="46.20821" lon="6.14255">
        <ele>389.8</ele>
        <time>2020-05-04T12:56:45.108Z</time>
      </trkpt>
      <trkpt lat="46.20824" lon="6.14255">
        <ele>389.7</ele>
        <time>2020-05-04T12:56:45.409Z</time>
      </trkpt>
      <trkpt lat="46.20829" lon="6.14255">
        <ele>389.5</ele>
        <time>2020-05-04T12:56:45.851Z</time>
      </trkpt>
      <trkpt lat="46.20832" lon="6.14253">
        <ele>389.2</ele>
        <time>2020-05-04T12:56:46.197Z</time>
      </trkpt>
      <trkpt lat="46.20836" lon="6.1425">
        <ele>389.1</ele>
        <time>2020-05-04T12:56:46.758Z</time>
      </trkpt>
      <trkpt lat="46.2084" lon="6.14246">
        <ele>389.3</ele>
        <time>2020-05-04T12:56:48.137Z</time>
      </trkpt>
      <trkpt lat="46.20842" lon="6.14241">
        <ele>389.4</ele>
        <time>2020-05-04T12:56:49.015Z</time>
      </trkpt>
      <trkpt lat="46.20843" lon="6.14234">
        <ele>389.6</ele>
        <time>2020-05-04T12:56:50.436Z</time>
      </trkpt>
      <trkpt lat="46.20852" lon="6.14153">
        <ele>390.8</ele>
        <time>2020-05-04T12:57:03.228Z</time>
      </trkpt>
      <trkpt lat="46.20858" lon="6.1409">
        <ele>390.4</ele>
        <time>2020-05-04T12:57:09.588Z</time>
      </trkpt>
      <trkpt lat="46.20861" lon="6.14072">
        <ele>390.1</ele>
        <time>2020-05-04T12:57:11.098Z</time>
      </trkpt>
      <trkpt lat="46.20864" lon="6.14062">
        <ele>390.3</ele>
        <time>2020-05-04T12:57:12.941Z</time>
      </trkpt>
      <trkpt lat="46.2087" lon="6.14051">
        <ele>390.4</ele>
        <time>2020-05-04T12:57:14.901Z</time>
      </trkpt>
      <trkpt lat="46.20893" lon="6.14011">
        <ele>391</ele>
        <time>2020-05-04T12:57:22.494Z</time>
      </trkpt>
      <trkpt lat="46.20902" lon="6.1399">
        <ele>392</ele>
        <time>2020-05-04T12:57:28.233Z</time>
      </trkpt>
      <trkpt lat="46.20907" lon="6.13978">
        <ele>392.3</ele>
        <time>2020-05-04T12:57:30.699Z</time>
      </trkpt>
      <trkpt lat="46.20922" lon="6.1395">
        <ele>396.1</ele>
        <time>2020-05-04T12:57:47.655Z</time>
      </trkpt>
      <trkpt lat="46.20928" lon="6.13938">
        <ele>396.6</ele>
        <time>2020-05-04T12:57:50.926Z</time>
      </trkpt>
      <trkpt lat="46.20931" lon="6.1393">
        <ele>396.7</ele>
        <time>2020-05-04T12:57:52.223Z</time>
      </trkpt>
      <trkpt lat="46.20933" lon="6.13923">
        <ele>396.9</ele>
        <time>2020-05-04T12:57:53.662Z</time>
      </trkpt>
      <trkpt lat="46.20934" lon="6.13916">
        <ele>398.7</ele>
        <time>2020-05-04T12:57:57.390Z</time>
      </trkpt>
      <trkpt lat="46.20934" lon="6.13909">
        <ele>398.8</ele>
        <time>2020-05-04T12:57:58.410Z</time>
      </trkpt>
      <trkpt lat="46.20933" lon="6.13902">
        <ele>399</ele>
        <time>2020-05-04T12:57:59.901Z</time>
      </trkpt>
      <trkpt lat="46.20928" lon="6.13879">
        <ele>399.7</ele>
        <time>2020-05-04T12:58:04.803Z</time>
      </trkpt>
      <trkpt lat="46.20881" lon="6.13689">
        <ele>402.6</ele>
        <time>2020-05-04T12:58:35.830Z</time>
      </trkpt>
      <trkpt lat="46.20859" lon="6.13594">
        <ele>405.1</ele>
        <time>2020-05-04T12:58:54.521Z</time>
      </trkpt>
      <trkpt lat="46.20857" lon="6.13583">
        <ele>405.4</ele>
        <time>2020-05-04T12:58:56.686Z</time>
      </trkpt>
      <trkpt lat="46.20855" lon="6.13572">
        <ele>407.1</ele>
        <time>2020-05-04T12:59:02.383Z</time>
      </trkpt>
      <trkpt lat="46.20847" lon="6.1354">
        <ele>407.6</ele>
        <time>2020-05-04T12:59:07.688Z</time>
      </trkpt>
      <trkpt lat="46.20841" lon="6.13515">
        <ele>409</ele>
        <time>2020-05-04T12:59:14.671Z</time>
      </trkpt>
      <trkpt lat="46.20839" lon="6.13506">
        <ele>409.8</ele>
        <time>2020-05-04T12:59:18.725Z</time>
      </trkpt>
      <trkpt lat="46.20839" lon="6.135">
        <ele>410.1</ele>
        <time>2020-05-04T12:59:20.239Z</time>
      </trkpt>
      <trkpt lat="46.2084" lon="6.13493">
        <ele>411</ele>
        <time>2020-05-04T12:59:23.822Z</time>
      </trkpt>
      <trkpt lat="46.20841" lon="6.13485">
        <ele>411</ele>
        <time>2020-05-04T12:59:24.898Z</time>
      </trkpt>
      <trkpt lat="46.20875" lon="6.13339">
        <ele>414.9</ele>
        <time>2020-05-04T12:59:53.842Z</time>
      </trkpt>
      <trkpt lat="46.20882" lon="6.13308">
        <ele>416.2</ele>
        <time>2020-05-04T13:00:01.269Z</time>
      </trkpt>
      <trkpt lat="46.20884" lon="6.13295">
        <ele>416.3</ele>
        <time>2020-05-04T13:00:03.161Z</time>
      </trkpt>
      <trkpt lat="46.20885" lon="6.1328">
        <ele>416.5</ele>
        <time>2020-05-04T13:00:05.414Z</time>
      </trkpt>
      <trkpt lat="46.20887" lon="6.13258">
        <ele>416.7</ele>
        <time>2020-05-04T13:00:08.627Z</time>
      </trkpt>
      <trkpt lat="46.20889" lon="6.1324">
        <ele>416.8</ele>
        <time>2020-05-04T13:00:11.056Z</time>
      </trkpt>
      <trkpt lat="46.20889" lon="6.13224">
        <ele>416.6</ele>
        <time>2020-05-04T13:00:12.467Z</time>
      </trkpt>
      <trkpt lat="46.20887" lon="6.1321">
        <ele>416.5</ele>
        <time>2020-05-04T13:00:13.826Z</time>
      </trkpt>
      <trkpt lat="46.20875" lon="6.13091">
        <ele>415.7</ele>
        <time>2020-05-04T13:00:25.794Z</time>
      </trkpt>
      <trkpt lat="46.20864" lon="6.12984">
        <ele>415.3</ele>
        <time>2020-05-04T13:00:38.277Z</time>
      </trkpt>
      <trkpt lat="46.20852" lon="6.12877">
        <ele>414.8</ele>
        <time>2020-05-04T13:00:50.676Z</time>
      </trkpt>
      <trkpt lat="46.20849" lon="6.12835">
        <ele>415.5</ele>
        <time>2020-05-04T13:00:57.364Z</time>
      </trkpt>
      <trkpt lat="46.20845" lon="6.12793">
        <ele>415.7</ele>
        <time>2020-05-04T13:01:03.060Z</time>
      </trkpt>
      <trkpt lat="46.20842" lon="6.12716">
        <ele>415.5</ele>
        <time>2020-05-04T13:01:12.160Z</time>
      </trkpt>
      <trkpt lat="46.20843" lon="6.12698">
        <ele>415.5</ele>
        <time>2020-05-04T13:01:14.342Z</time>
      </trkpt>
      <trkpt lat="46.20845" lon="6.1267">
        <ele>415.3</ele>
        <time>2020-05-04T13:01:17.111Z</time>
      </trkpt>
      <trkpt lat="46.20855" lon="6.12585">
        <ele>416.9</ele>
        <time>2020-05-04T13:01:31.401Z</time>
      </trkpt>
      <trkpt lat="46.20861" lon="6.12542">
        <ele>418.2</ele>
        <time>2020-05-04T13:01:40.426Z</time>
      </trkpt>
      <trkpt lat="46.20871" lon="6.12476">
        <ele>419.6</ele>
        <time>2020-05-04T13:01:52.041Z</time>
      </trkpt>
      <trkpt lat="46.20885" lon="6.12403">
        <ele>419.8</ele>
        <time>2020-05-04T13:02:01.925Z</time>
      </trkpt>
      <trkpt lat="46.20901" lon="6.1232">
        <ele>417.4</ele>
        <time>2020-05-04T13:02:07.992Z</time>
      </trkpt>
      <trkpt lat="46.20918" lon="6.12235">
        <ele>414.1</ele>
        <time>2020-05-04T13:02:13.475Z</time>
      </trkpt>
      <trkpt lat="46.20938" lon="6.12132">
        <ele>415</ele>
        <time>2020-05-04T13:02:28.567Z</time>
      </trkpt>
      <trkpt lat="46.2094" lon="6.12125">
        <ele>415.2</ele>
        <time>2020-05-04T13:02:30.005Z</time>
      </trkpt>
      <trkpt lat="46.20944" lon="6.12119">
        <ele>415.3</ele>
        <time>2020-05-04T13:02:31.240Z</time>
      </trkpt>
      <trkpt lat="46.20947" lon="6.12112">
        <ele>415.4</ele>
        <time>2020-05-04T13:02:32.467Z</time>
      </trkpt>
      <trkpt lat="46.20949" lon="6.12105">
        <ele>415.5</ele>
        <time>2020-05-04T13:02:33.628Z</time>
      </trkpt>
      <trkpt lat="46.20953" lon="6.12082">
        <ele>416.8</ele>
        <time>2020-05-04T13:02:40.058Z</time>
      </trkpt>
      <trkpt lat="46.20959" lon="6.1206">
        <ele>416.7</ele>
        <time>2020-05-04T13:02:42.704Z</time>
      </trkpt>
      <trkpt lat="46.20961" lon="6.12056">
        <ele>416.7</ele>
        <time>2020-05-04T13:02:43.342Z</time>
      </trkpt>
      <trkpt lat="46.20964" lon="6.12053">
        <ele>416.6</ele>
        <time>2020-05-04T13:02:43.809Z</time>
      </trkpt>
      <trkpt lat="46.20968" lon="6.12051">
        <ele>416.6</ele>
        <time>2020-05-04T13:02:44.590Z</time>
      </trkpt>
      <trkpt lat="46.20973" lon="6.1205">
        <ele>416.5</ele>
        <time>2020-05-04T13:02:45.247Z</time>
      </trkpt>
      <trkpt lat="46.21027" lon="6.12044">
        <ele>416.4</ele>
        <time>2020-05-04T13:02:54.722Z</time>
      </trkpt>
      <trkpt lat="46.2109" lon="6.12038">
        <ele>417.5</ele>
        <time>2020-05-04T13:03:08.271Z</time>
      </trkpt>
      <trkpt lat="46.21166" lon="6.12031">
        <ele>417.9</ele>
        <time>2020-05-04T13:03:22.679Z</time>
      </trkpt>
      <trkpt lat="46.21182" lon="6.12029">
        <ele>420.2</ele>
        <time>2020-05-04T13:03:33.775Z</time>
      </trkpt>
      <trkpt lat="46.21192" lon="6.12028">
        <ele>420.5</ele>
        <time>2020-05-04T13:03:36.275Z</time>
      </trkpt>
      <trkpt lat="46.21202" lon="6.12025">
        <ele>420.9</ele>
        <time>2020-05-04T13:03:39.111Z</time>
      </trkpt>
      <trkpt lat="46.21215" lon="6.12019">
        <ele>421.6</ele>
        <time>2020-05-04T13:03:43.561Z</time>
      </trkpt>
      <trkpt lat="46.21228" lon="6.12012">
        <ele>422.4</ele>
        <time>2020-05-04T13:03:48.121Z</time>
      </trkpt>
      <trkpt lat="46.21243" lon="6.12003">
        <ele>424</ele>
        <time>2020-05-04T13:03:55.660Z</time>
      </trkpt>
      <trkpt lat="46.21257" lon="6.11992">
        <ele>424</ele>
        <time>2020-05-04T13:03:58.444Z</time>
      </trkpt>
      <trkpt lat="46.21305" lon="6.11952">
        <ele>422.1</ele>
        <time>2020-05-04T13:04:04.410Z</time>
      </trkpt>
      <trkpt lat="46.21355" lon="6.11905">
        <ele>422.9</ele>
        <time>2020-05-04T13:04:16.763Z</time>
      </trkpt>
      <trkpt lat="46.21418" lon="6.11841">
        <ele>426.6</ele>
        <time>2020-05-04T13:04:40.758Z</time>
      </trkpt>
      <trkpt lat="46.21457" lon="6.11802">
        <ele>429.2</ele>
        <time>2020-05-04T13:04:56.110Z</time>
      </trkpt>
      <trkpt lat="46.21462" lon="6.11799">
        <ele>429.3</ele>
        <time>2020-05-04T13:04:57.384Z</time>
      </trkpt>
      <trkpt lat="46.21467" lon="6.11798">
        <ele>429.5</ele>
        <time>2020-05-04T13:04:58.768Z</time>
      </trkpt>
      <trkpt lat="46.21472" lon="6.11797">
        <ele>429.6</ele>
        <time>2020-05-04T13:04:59.876Z</time>
      </trkpt>
      <trkpt lat="46.21477" lon="6.11797">
        <ele>429.7</ele>
        <time>2020-05-04T13:05:01.033Z</time>
      </trkpt>
      <trkpt lat="46.21483" lon="6.11797">
        <ele>429.9</ele>
        <time>2020-05-04T13:05:02.565Z</time>
      </trkpt>
      <trkpt lat="46.21488" lon="6.11799">
        <ele>430</ele>
        <time>2020-05-04T13:05:03.775Z</time>
      </trkpt>
      <trkpt lat="46.21495" lon="6.11801">
        <ele>430.2</ele>
        <time>2020-05-04T13:05:05.412Z</time>
      </trkpt>
      <trkpt lat="46.21501" lon="6.11804">
        <ele>431.8</ele>
        <time>2020-05-04T13:05:10.336Z</time>
      </trkpt>
      <trkpt lat="46.21508" lon="6.11808">
        <ele>431.8</ele>
        <time>2020-05-04T13:05:11.619Z</time>
      </trkpt>
      <trkpt lat="46.21525" lon="6.11819">
        <ele>431.8</ele>
        <time>2020-05-04T13:05:15.059Z</time>
      </trkpt>
      <trkpt lat="46.21572" lon="6.11848">
        <ele>432.8</ele>
        <time>2020-05-04T13:05:26.225Z</time>
      </trkpt>
      <trkpt lat="46.2158" lon="6.11855">
        <ele>433</ele>
        <time>2020-05-04T13:05:28.344Z</time>
      </trkpt>
      <trkpt lat="46.2159" lon="6.11863">
        <ele>434.6</ele>
        <time>2020-05-04T13:05:36.098Z</time>
      </trkpt>
      <trkpt lat="46.216" lon="6.11871">
        <ele>435.1</ele>
        <time>2020-05-04T13:05:39.557Z</time>
      </trkpt>
      <trkpt lat="46.21616" lon="6.11884">
        <ele>435.7</ele>
        <time>2020-05-04T13:05:44.247Z</time>
      </trkpt>
      <trkpt lat="46.2162" lon="6.11885">
        <ele>435.7</ele>
        <time>2020-05-04T13:05:45.124Z</time>
      </trkpt>
      <trkpt lat="46.21625" lon="6.11885">
        <ele>435.8</ele>
        <time>2020-05-04T13:05:46.095Z</time>
      </trkpt>
      <trkpt lat="46.21628" lon="6.11883">
        <ele>435.8</ele>
        <time>2020-05-04T13:05:46.647Z</time>
      </trkpt>
      <trkpt lat="46.2163" lon="6.1188">
        <ele>435.7</ele>
        <time>2020-05-04T13:05:47.010Z</time>
      </trkpt>
      <trkpt lat="46.21632" lon="6.11876">
        <ele>435.6</ele>
        <time>2020-05-04T13:05:47.357Z</time>
      </trkpt>
      <trkpt lat="46.21636" lon="6.11862">
        <ele>435.2</ele>
        <time>2020-05-04T13:05:48.523Z</time>
      </trkpt>
      <trkpt lat="46.21648" lon="6.11827">
        <ele>433.2</ele>
        <time>2020-05-04T13:05:50.921Z</time>
      </trkpt>
      <trkpt lat="46.21655" lon="6.1181">
        <ele>433</ele>
        <time>2020-05-04T13:05:52.748Z</time>
      </trkpt>
      <trkpt lat="46.2166" lon="6.11799">
        <ele>432.8</ele>
        <time>2020-05-04T13:05:53.839Z</time>
      </trkpt>
      <trkpt lat="46.21671" lon="6.11774">
        <ele>432.9</ele>
        <time>2020-05-04T13:05:57.813Z</time>
      </trkpt>
      <trkpt lat="46.21691" lon="6.11731">
        <ele>432.8</ele>
        <time>2020-05-04T13:06:03.992Z</time>
      </trkpt>
      <trkpt lat="46.21721" lon="6.11672">
        <ele>433.1</ele>
        <time>2020-05-04T13:06:13.678Z</time>
      </trkpt>
      <trkpt lat="46.21741" lon="6.11639">
        <ele>433.4</ele>
        <time>2020-05-04T13:06:19.704Z</time>
      </trkpt>
      <trkpt lat="46.21756" lon="6.11616">
        <ele>435.1</ele>
        <time>2020-05-04T13:06:28.053Z</time>
      </trkpt>
      <trkpt lat="46.21776" lon="6.11591">
        <ele>435.5</ele>
        <time>2020-05-04T13:06:33.638Z</time>
      </trkpt>
      <trkpt lat="46.21796" lon="6.11568">
        <ele>436.2</ele>
        <time>2020-05-04T13:06:39.872Z</time>
      </trkpt>
      <trkpt lat="46.21818" lon="6.11547">
        <ele>436.6</ele>
        <time>2020-05-04T13:06:45.369Z</time>
      </trkpt>
      <trkpt lat="46.2184" lon="6.11529">
        <ele>439.4</ele>
        <time>2020-05-04T13:06:58.661Z</time>
      </trkpt>
      <trkpt lat="46.21905" lon="6.11484">
        <ele>440.6</ele>
        <time>2020-05-04T13:07:14.084Z</time>
      </trkpt>
      <trkpt lat="46.21921" lon="6.11476">
        <ele>441.2</ele>
        <time>2020-05-04T13:07:18.543Z</time>
      </trkpt>
      <trkpt lat="46.21939" lon="6.11464">
        <ele>441.2</ele>
        <time>2020-05-04T13:07:22.160Z</time>
      </trkpt>
      <trkpt lat="46.21947" lon="6.11457">
        <ele>441.1</ele>
        <time>2020-05-04T13:07:23.543Z</time>
      </trkpt>
      <trkpt lat="46.21956" lon="6.1145">
        <ele>441</ele>
        <time>2020-05-04T13:07:24.920Z</time>
      </trkpt>
      <trkpt lat="46.21967" lon="6.1144">
        <ele>440.7</ele>
        <time>2020-05-04T13:07:26.571Z</time>
      </trkpt>
      <trkpt lat="46.21977" lon="6.1143">
        <ele>440.1</ele>
        <time>2020-05-04T13:07:27.742Z</time>
      </trkpt>
      <trkpt lat="46.22" lon="6.11406">
        <ele>439.1</ele>
        <time>2020-05-04T13:07:30.671Z</time>
      </trkpt>
      <trkpt lat="46.22026" lon="6.11378">
        <ele>438.5</ele>
        <time>2020-05-04T13:07:34.923Z</time>
      </trkpt>
      <trkpt lat="46.22054" lon="6.11347">
        <ele>437.7</ele>
        <time>2020-05-04T13:07:39.225Z</time>
      </trkpt>
      <trkpt lat="46.22062" lon="6.11337">
        <ele>437.1</ele>
        <time>2020-05-04T13:07:40.136Z</time>
      </trkpt>
      <trkpt lat="46.22072" lon="6.11325">
        <ele>435.9</ele>
        <time>2020-05-04T13:07:41.260Z</time>
      </trkpt>
      <trkpt lat="46.22081" lon="6.11313">
        <ele>435.9</ele>
        <time>2020-05-04T13:07:43.589Z</time>
      </trkpt>
      <trkpt lat="46.22089" lon="6.11301">
        <ele>435</ele>
        <time>2020-05-04T13:07:44.606Z</time>
      </trkpt>
      <trkpt lat="46.22098" lon="6.11288">
        <ele>435</ele>
        <time>2020-05-04T13:07:46.880Z</time>
      </trkpt>
      <trkpt lat="46.22112" lon="6.11266">
        <ele>435</ele>
        <time>2020-05-04T13:07:50.559Z</time>
      </trkpt>
      <trkpt lat="46.2213" lon="6.11234">
        <ele>435.1</ele>
        <time>2020-05-04T13:07:55.972Z</time>
      </trkpt>
      <trkpt lat="46.22152" lon="6.11192">
        <ele>434.8</ele>
        <time>2020-05-04T13:08:01.232Z</time>
      </trkpt>
      <trkpt lat="46.22185" lon="6.11135">
        <ele>432.7</ele>
        <time>2020-05-04T13:08:06.515Z</time>
      </trkpt>
      <trkpt lat="46.222" lon="6.1111">
        <ele>432.3</ele>
        <time>2020-05-04T13:08:09.440Z</time>
      </trkpt>
      <trkpt lat="46.22209" lon="6.11097">
        <ele>432.2</ele>
        <time>2020-05-04T13:08:11.347Z</time>
      </trkpt>
      <trkpt lat="46.22215" lon="6.11087">
        <ele>432</ele>
        <time>2020-05-04T13:08:12.544Z</time>
      </trkpt>
      <trkpt lat="46.22236" lon="6.11061">
        <ele>432.1</ele>
        <time>2020-05-04T13:08:17.688Z</time>
      </trkpt>
      <trkpt lat="46.2226" lon="6.11033">
        <ele>431.7</ele>
        <time>2020-05-04T13:08:21.931Z</time>
      </trkpt>
      <trkpt lat="46.22316" lon="6.10968">
        <ele>431.7</ele>
        <time>2020-05-04T13:08:34.797Z</time>
      </trkpt>
      <trkpt lat="46.22336" lon="6.10944">
        <ele>430.7</ele>
        <time>2020-05-04T13:08:37.516Z</time>
      </trkpt>
      <trkpt lat="46.22357" lon="6.1092">
        <ele>430.5</ele>
        <time>2020-05-04T13:08:41.485Z</time>
      </trkpt>
      <trkpt lat="46.22384" lon="6.10887">
        <ele>428.4</ele>
        <time>2020-05-04T13:08:44.541Z</time>
      </trkpt>
      <trkpt lat="46.22413" lon="6.1085">
        <ele>427.6</ele>
        <time>2020-05-04T13:08:49.347Z</time>
      </trkpt>
      <trkpt lat="46.22436" lon="6.1082">
        <ele>427.4</ele>
        <time>2020-05-04T13:08:54.517Z</time>
      </trkpt>
      <trkpt lat="46.22464" lon="6.10783">
        <ele>427.5</ele>
        <time>2020-05-04T13:09:01.518Z</time>
      </trkpt>
      <trkpt lat="46.22501" lon="6.10733">
        <ele>426.8</ele>
        <time>2020-05-04T13:09:08.478Z</time>
      </trkpt>
      <trkpt lat="46.22539" lon="6.10677">
        <ele>426.8</ele>
        <time>2020-05-04T13:09:18.221Z</time>
      </trkpt>
      <trkpt lat="46.22563" lon="6.10643">
        <ele>427</ele>
        <time>2020-05-04T13:09:24.630Z</time>
      </trkpt>
      <trkpt lat="46.22587" lon="6.10605">
        <ele>425.1</ele>
        <time>2020-05-04T13:09:27.841Z</time>
      </trkpt>
      <trkpt lat="46.2261" lon="6.1057">
        <ele>423.7</ele>
        <time>2020-05-04T13:09:31.229Z</time>
      </trkpt>
      <trkpt lat="46.22636" lon="6.10534">
        <ele>422.4</ele>
        <time>2020-05-04T13:09:35.052Z</time>
      </trkpt>
      <trkpt lat="46.22644" lon="6.10524">
        <ele>422.1</ele>
        <time>2020-05-04T13:09:36.195Z</time>
      </trkpt>
      <trkpt lat="46.22652" lon="6.10514">
        <ele>421.5</ele>
        <time>2020-05-04T13:09:37.146Z</time>
      </trkpt>
      <trkpt lat="46.2266" lon="6.10503">
        <ele>420.7</ele>
        <time>2020-05-04T13:09:38.175Z</time>
      </trkpt>
      <trkpt lat="46.22731" lon="6.10398">
        <ele>421.6</ele>
        <time>2020-05-04T13:09:58.103Z</time>
      </trkpt>
      <trkpt lat="46.22776" lon="6.10332">
        <ele>423.7</ele>
        <time>2020-05-04T13:10:14.641Z</time>
      </trkpt>
      <trkpt lat="46.22786" lon="6.10324">
        <ele>424.1</ele>
        <time>2020-05-04T13:10:17.690Z</time>
      </trkpt>
      <trkpt lat="46.2279" lon="6.10323">
        <ele>424.3</ele>
        <time>2020-05-04T13:10:18.841Z</time>
      </trkpt>
      <trkpt lat="46.22794" lon="6.10323">
        <ele>424.4</ele>
        <time>2020-05-04T13:10:19.845Z</time>
      </trkpt>
      <trkpt lat="46.22799" lon="6.10324">
        <ele>424.6</ele>
        <time>2020-05-04T13:10:21.242Z</time>
      </trkpt>
      <trkpt lat="46.22803" lon="6.10326">
        <ele>424.7</ele>
        <time>2020-05-04T13:10:22.210Z</time>
      </trkpt>
      <trkpt lat="46.22806" lon="6.1033">
        <ele>424.8</ele>
        <time>2020-05-04T13:10:23.251Z</time>
      </trkpt>
      <trkpt lat="46.2281" lon="6.10336">
        <ele>425.1</ele>
        <time>2020-05-04T13:10:25.115Z</time>
      </trkpt>
      <trkpt lat="46.22843" lon="6.10383">
        <ele>425.9</ele>
        <time>2020-05-04T13:10:35.036Z</time>
      </trkpt>
      <trkpt lat="46.22853" lon="6.10399">
        <ele>426.2</ele>
        <time>2020-05-04T13:10:38.299Z</time>
      </trkpt>
      <trkpt lat="46.22857" lon="6.10409">
        <ele>426.2</ele>
        <time>2020-05-04T13:10:39.717Z</time>
      </trkpt>
      <trkpt lat="46.22861" lon="6.10419">
        <ele>427</ele>
        <time>2020-05-04T13:10:43.475Z</time>
      </trkpt>
      <trkpt lat="46.22867" lon="6.10434">
        <ele>426.7</ele>
        <time>2020-05-04T13:10:44.917Z</time>
      </trkpt>
      <trkpt lat="46.22878" lon="6.10464">
        <ele>426.5</ele>
        <time>2020-05-04T13:10:48.314Z</time>
      </trkpt>
      <trkpt lat="46.22884" lon="6.1048">
        <ele>426.5</ele>
        <time>2020-05-04T13:10:50.554Z</time>
      </trkpt>
      <trkpt lat="46.2289" lon="6.10493">
        <ele>426.4</ele>
        <time>2020-05-04T13:10:52.192Z</time>
      </trkpt>
      <trkpt lat="46.22895" lon="6.10503">
        <ele>426.4</ele>
        <time>2020-05-04T13:10:53.713Z</time>
      </trkpt>
      <trkpt lat="46.229" lon="6.10513">
        <ele>426.3</ele>
        <time>2020-05-04T13:10:54.915Z</time>
      </trkpt>
      <trkpt lat="46.22924" lon="6.1055">
        <ele>425.1</ele>
        <time>2020-05-04T13:10:58.702Z</time>
      </trkpt>
      <trkpt lat="46.22931" lon="6.1056">
        <ele>425.1</ele>
        <time>2020-05-04T13:11:00.515Z</time>
      </trkpt>
      <trkpt lat="46.22934" lon="6.10567">
        <ele>425.2</ele>
        <time>2020-05-04T13:11:01.733Z</time>
      </trkpt>
      <trkpt lat="46.22936" lon="6.10574">
        <ele>425.2</ele>
        <time>2020-05-04T13:11:02.640Z</time>
      </trkpt>
      <trkpt lat="46.22937" lon="6.10581">
        <ele>425.3</ele>
        <time>2020-05-04T13:11:03.813Z</time>
      </trkpt>
      <trkpt lat="46.22937" lon="6.10588">
        <ele>425.2</ele>
        <time>2020-05-04T13:11:04.380Z</time>
      </trkpt>
      <trkpt lat="46.22933" lon="6.10618">
        <ele>424.7</ele>
        <time>2020-05-04T13:11:06.880Z</time>
      </trkpt>
      <trkpt lat="46.22932" lon="6.10638">
        <ele>424.2</ele>
        <time>2020-05-04T13:11:08.408Z</time>
      </trkpt>
      <trkpt lat="46.22932" lon="6.10651">
        <ele>423.9</ele>
        <time>2020-05-04T13:11:09.432Z</time>
      </trkpt>
      <trkpt lat="46.22933" lon="6.10665">
        <ele>423.7</ele>
        <time>2020-05-04T13:11:10.555Z</time>
      </trkpt>
      <trkpt lat="46.22935" lon="6.10675">
        <ele>423.8</ele>
        <time>2020-05-04T13:11:12.125Z</time>
      </trkpt>
      <trkpt lat="46.22938" lon="6.10685">
        <ele>424</ele>
        <time>2020-05-04T13:11:13.889Z</time>
      </trkpt>
      <trkpt lat="46.22942" lon="6.10697">
        <ele>424.2</ele>
        <time>2020-05-04T13:11:15.952Z</time>
      </trkpt>
      <trkpt lat="46.22948" lon="6.10707">
        <ele>424.4</ele>
        <time>2020-05-04T13:11:18.032Z</time>
      </trkpt>
      <trkpt lat="46.22954" lon="6.10715">
        <ele>424.6</ele>
        <time>2020-05-04T13:11:20.000Z</time>
      </trkpt>
      <trkpt lat="46.22991" lon="6.10771">
        <ele>425.1</ele>
        <time>2020-05-04T13:11:30.471Z</time>
      </trkpt>
      <trkpt lat="46.22995" lon="6.10779">
        <ele>424.9</ele>
        <time>2020-05-04T13:11:31.275Z</time>
      </trkpt>
      <trkpt lat="46.22994" lon="6.10787">
        <ele>424.8</ele>
        <time>2020-05-04T13:11:32.002Z</time>
      </trkpt>
      <trkpt lat="46.22992" lon="6.10794">
        <ele>424.6</ele>
        <time>2020-05-04T13:11:32.571Z</time>
      </trkpt>
      <trkpt lat="46.22984" lon="6.10804">
        <ele>424.5</ele>
        <time>2020-05-04T13:11:34.105Z</time>
      </trkpt>
      <trkpt lat="46.22972" lon="6.10823">
        <ele>424.3</ele>
        <time>2020-05-04T13:11:36.626Z</time>
      </trkpt>
      <trkpt lat="46.22967" lon="6.10834">
        <ele>423</ele>
        <time>2020-05-04T13:11:37.423Z</time>
      </trkpt>
      <trkpt lat="46.22966" lon="6.10841">
        <ele>422.9</ele>
        <time>2020-05-04T13:11:38.030Z</time>
      </trkpt>
      <trkpt lat="46.23057" lon="6.10972">
        <ele>424.2</ele>
        <time>2020-05-04T13:12:03.682Z</time>
      </trkpt>
    </trkseg>
  </trk>
</gpx>